createdAt,value
2019-03-11T00:01:42.915Z,11.75
2019-03-11T00:05:46.439Z,13.97
2019-03-11T00:09:50.057Z,10.60
2019-03-11T00:13:53.766Z,12.57
2019-03-11T00:17:57.310Z,13.37
2019-03-11T00:22:01.006Z,16.37
2019-03-11T00:26:04.708Z,9.27
2019-03-11T00:30:10.773Z,8.33
2019-03-11T00:34:14.311Z,8.37
2019-03-11T00:38:18.003Z,10.20
2019-03-11T00:42:21.546Z,11.83
2019-03-11T00:46:25.261Z,6.57
2019-03-11T00:50:28.849Z,7.77
2019-03-11T00:54:32.368Z,7.10
2019-03-11T00:58:35.971Z,8.13
2019-03-11T01:02:39.586Z,7.87
2019-03-11T01:06:43.307Z,7.53
2019-03-11T01:10:46.911Z,6.90
2019-03-11T01:14:50.471Z,9.77
2019-03-11T01:18:54.241Z,8.73
2019-03-11T01:22:57.854Z,9.35
2019-03-11T01:27:01.469Z,10.17
2019-03-11T01:31:05.295Z,10.65
2019-03-11T01:35:10.026Z,11.40
2019-03-11T01:39:13.825Z,12.40
2019-03-11T01:43:17.541Z,14.13
2019-03-11T01:47:21.277Z,13.50
2019-03-11T01:51:25.101Z,16.53
2019-03-11T01:55:28.967Z,13.23
2019-03-11T01:59:32.534Z,15.48
2019-03-11T02:03:36.246Z,13.50
2019-03-11T02:07:39.923Z,12.50
2019-03-11T02:11:43.578Z,13.47
2019-03-11T02:15:47.297Z,14.58
2019-03-11T02:19:51.005Z,10.30
2019-03-11T02:23:54.727Z,10.00
2019-03-11T02:27:58.346Z,9.43
2019-03-11T02:32:02.069Z,10.30
2019-03-11T02:36:05.780Z,10.00
2019-03-11T02:40:14.783Z,11.47
2019-03-11T02:44:18.450Z,9.15
2019-03-11T02:48:22.571Z,11.33
2019-03-11T02:52:26.379Z,12.47
2019-03-11T02:56:29.890Z,10.33
2019-03-11T03:00:33.494Z,9.33
2019-03-11T03:04:41.727Z,13.50
2019-03-11T03:08:45.257Z,14.98
2019-03-11T03:12:48.964Z,20.23
2019-03-11T03:16:52.665Z,16.15
2019-03-11T03:20:56.272Z,19.10
2019-03-11T03:25:00.459Z,19.32
2019-03-11T03:29:04.218Z,15.60
2019-03-11T03:33:09.893Z,17.12
2019-03-11T03:37:13.715Z,19.87
2019-03-11T03:41:17.229Z,16.03
2019-03-11T03:45:29.018Z,16.70
2019-03-11T03:53:35.939Z,13.22
2019-03-11T03:57:39.656Z,13.78
2019-03-11T04:01:43.331Z,11.60
2019-03-11T04:05:46.876Z,10.00
2019-03-11T04:09:50.490Z,14.63
2019-03-11T04:13:54.104Z,20.43
2019-03-11T04:17:57.720Z,14.73
2019-03-11T04:22:01.437Z,13.87
2019-03-11T04:26:05.253Z,13.40
2019-03-11T04:30:15.110Z,13.33
2019-03-11T04:34:18.835Z,15.13
2019-03-11T04:38:22.442Z,17.48
2019-03-11T04:42:27.826Z,15.75
2019-03-11T04:46:31.874Z,22.15
2019-03-11T04:50:35.451Z,26.10
2019-03-11T04:54:39.048Z,18.07
2019-03-11T04:58:42.865Z,15.30
2019-03-11T05:02:46.458Z,28.60
2019-03-11T05:06:50.195Z,15.53
2019-03-11T05:10:53.808Z,14.73
2019-03-11T05:14:57.422Z,14.10
2019-03-11T05:19:01.346Z,19.87
2019-03-11T05:23:04.960Z,15.43
2019-03-11T05:27:08.508Z,16.33
2019-03-11T05:31:12.190Z,24.72
2019-03-11T05:35:15.915Z,18.57
2019-03-11T05:39:19.515Z,17.00
2019-03-11T05:43:23.251Z,19.60
2019-03-11T05:47:26.842Z,20.10
2019-03-11T05:51:31.936Z,13.50
2019-03-11T05:55:35.816Z,21.52
2019-03-11T05:59:39.429Z,17.45
2019-03-11T06:03:43.039Z,17.73
2019-03-11T06:07:46.754Z,16.30
2019-03-11T06:11:50.367Z,15.50
2019-03-11T06:15:53.986Z,17.27
2019-03-11T06:20:02.210Z,15.03
2019-03-11T06:24:06.081Z,12.77
2019-03-11T06:28:09.737Z,9.97
2019-03-11T06:32:13.352Z,24.35
2019-03-11T06:36:16.967Z,19.27
2019-03-11T06:40:20.682Z,20.40
2019-03-11T06:44:24.295Z,14.75
2019-03-11T06:48:27.909Z,14.13
2019-03-11T06:52:31.523Z,18.57
2019-03-11T06:56:35.039Z,14.80
2019-03-11T07:00:38.650Z,16.30
2019-03-11T07:04:42.261Z,13.65
2019-03-11T07:08:45.979Z,11.30
2019-03-11T07:12:49.595Z,10.45
2019-03-11T07:16:53.616Z,22.40
2019-03-11T07:20:57.156Z,13.55
2019-03-11T07:25:01.048Z,12.00
2019-03-11T07:29:04.753Z,15.45
2019-03-11T07:33:08.374Z,13.93
2019-03-11T07:37:12.072Z,12.27
2019-03-11T07:41:15.821Z,16.52
2019-03-11T07:45:19.525Z,14.20
2019-03-11T07:49:26.210Z,18.20
2019-03-11T07:53:29.836Z,9.98
2019-03-11T07:57:33.445Z,8.75
2019-03-11T08:01:37.154Z,13.53
2019-03-11T08:05:40.868Z,11.43
2019-03-11T08:09:44.482Z,9.85
2019-03-11T08:13:48.096Z,10.98
2019-03-11T08:17:51.808Z,9.73
2019-03-11T08:21:55.636Z,10.60
2019-03-11T08:25:59.249Z,10.90
2019-03-11T08:30:02.857Z,12.82
2019-03-11T08:34:06.470Z,10.95
2019-03-11T08:38:10.084Z,8.00
2019-03-11T08:42:13.700Z,15.78
2019-03-11T08:46:17.312Z,14.23
2019-03-11T08:50:22.467Z,17.55
2019-03-11T08:54:26.995Z,5.88
2019-03-11T08:58:30.615Z,6.72
2019-03-11T09:02:34.238Z,13.73
2019-03-11T09:06:37.839Z,14.40
2019-03-11T09:10:41.461Z,11.97
2019-03-11T09:14:45.067Z,14.80
2019-03-11T09:18:49.625Z,9.40
2019-03-11T09:22:53.323Z,14.87
2019-03-11T09:26:57.036Z,11.20
2019-03-11T09:31:00.661Z,14.96
2019-03-11T09:35:05.222Z,8.60
2019-03-11T09:39:11.139Z,7.37
2019-03-11T09:43:14.771Z,9.73
2019-03-11T09:47:18.478Z,6.75
2019-03-11T09:51:22.124Z,9.28
2019-03-11T09:55:31.866Z,9.38
2019-03-11T09:59:35.467Z,5.62
2019-03-11T10:03:39.081Z,4.37
2019-03-11T10:07:42.707Z,4.25
2019-03-11T10:11:46.408Z,6.03
2019-03-11T10:15:50.023Z,9.50
2019-03-11T10:19:53.635Z,9.78
2019-03-11T10:24:00.019Z,7.55
2019-03-11T10:28:03.628Z,8.33
2019-03-11T10:32:07.341Z,3.47
2019-03-11T10:36:11.057Z,7.08
2019-03-11T10:40:22.146Z,5.35
2019-03-11T10:44:25.760Z,5.13
2019-03-11T10:48:37.031Z,3.47
2019-03-11T10:52:34.662Z,5.97
2019-03-11T10:56:38.242Z,6.37
2019-03-11T11:00:42.168Z,5.00
2019-03-11T11:04:47.928Z,1.87
2019-03-11T11:08:51.133Z,3.08
2019-03-11T11:12:54.861Z,2.75
2019-03-11T11:16:58.369Z,4.33
2019-03-11T11:21:01.969Z,3.12
2019-03-11T11:25:07.736Z,5.78
2019-03-11T11:29:11.371Z,5.72
2019-03-11T11:33:15.068Z,4.05
2019-03-11T11:37:18.735Z,3.52
2019-03-11T11:41:22.394Z,4.78
2019-03-11T11:45:28.063Z,3.95
2019-03-11T11:49:31.725Z,2.80
2019-03-11T11:53:35.392Z,3.60
2019-03-11T11:57:39.003Z,6.22
2019-03-11T12:01:42.613Z,3.37
2019-03-11T12:05:46.327Z,4.62
2019-03-11T12:09:50.189Z,5.72
2019-03-11T12:13:53.862Z,3.08
2019-03-11T12:17:57.457Z,5.03
2019-03-11T12:22:00.992Z,3.98
2019-03-11T12:26:04.818Z,4.05
2019-03-11T12:30:26.174Z,3.27
2019-03-11T12:34:29.759Z,7.47
2019-03-11T12:38:33.368Z,7.25
2019-03-11T12:42:36.913Z,6.22
2019-03-11T12:46:40.444Z,5.75
2019-03-11T12:50:44.205Z,3.92
2019-03-11T12:54:48.136Z,4.85
2019-03-11T12:58:51.756Z,7.42
2019-03-11T13:02:55.695Z,5.83
2019-03-11T13:06:59.278Z,6.25
2019-03-11T13:11:02.915Z,6.60
2019-03-11T13:15:08.753Z,9.65
2019-03-11T13:19:13.458Z,5.03
2019-03-11T13:23:17.321Z,2.82
2019-03-11T13:27:20.926Z,5.95
2019-03-11T13:31:25.576Z,6.08
2019-03-11T13:35:29.125Z,4.55
2019-03-11T13:39:32.651Z,2.15
2019-03-11T13:43:36.634Z,3.17
2019-03-11T13:47:40.338Z,3.83
2019-03-11T13:51:43.987Z,4.37
2019-03-11T13:55:47.558Z,7.83
2019-03-11T13:59:51.170Z,4.78
2019-03-11T14:03:54.781Z,4.83
2019-03-11T14:07:58.502Z,4.33
2019-03-11T14:12:02.121Z,5.55
2019-03-11T14:16:05.718Z,5.55
2019-03-11T14:20:11.583Z,4.28
2019-03-11T14:24:16.227Z,4.67
2019-03-11T14:28:19.867Z,5.30
2019-03-11T14:32:23.405Z,2.47
2019-03-11T14:36:26.969Z,3.95
2019-03-11T14:40:30.785Z,3.47
2019-03-11T14:44:34.422Z,3.87
2019-03-11T14:48:38.085Z,2.80
2019-03-11T14:52:41.848Z,1.62
2019-03-11T14:56:45.444Z,0.80
2019-03-11T15:00:49.264Z,0.85
2019-03-11T15:04:52.817Z,0.80
2019-03-11T15:08:59.668Z,1.25
2019-03-11T15:13:04.540Z,1.82
2019-03-11T15:17:08.121Z,1.10
2019-03-11T15:21:14.507Z,3.10
2019-03-11T15:25:19.135Z,1.30
2019-03-11T15:29:22.769Z,0.57
2019-03-11T15:33:26.369Z,0.50
2019-03-11T15:37:30.085Z,0.68
2019-03-11T15:41:33.696Z,0.63
2019-03-11T15:45:38.913Z,3.77
2019-03-11T15:49:42.777Z,1.90
2019-03-11T15:53:46.389Z,5.42
2019-03-11T15:57:50.106Z,2.02
2019-03-11T16:01:53.714Z,5.08
2019-03-11T16:05:57.431Z,2.50
2019-03-11T16:10:01.142Z,6.58
2019-03-11T16:14:04.801Z,3.30
2019-03-11T16:18:08.478Z,3.17
2019-03-11T16:22:22.465Z,2.30
2019-03-11T16:26:17.460Z,6.75
2019-03-11T16:30:25.126Z,4.75
2019-03-11T16:34:30.204Z,5.20
2019-03-11T16:38:33.809Z,2.74
2019-03-11T16:42:37.545Z,4.17
2019-03-11T16:46:41.351Z,4.08
2019-03-11T16:50:45.062Z,4.22
2019-03-11T16:54:48.768Z,4.47
2019-03-11T16:58:52.392Z,3.83
2019-03-11T17:02:56.133Z,3.20
2019-03-11T17:06:59.725Z,5.70
2019-03-11T17:11:03.441Z,6.05
2019-03-11T17:15:08.588Z,8.50
2019-03-11T17:19:12.200Z,3.05
2019-03-11T17:23:19.092Z,3.10
2019-03-11T17:27:22.703Z,3.87
2019-03-11T17:31:26.322Z,3.85
2019-03-11T17:35:33.124Z,9.75
2019-03-11T17:39:36.824Z,46.25
2019-03-11T17:43:40.541Z,16.93
2019-03-11T17:47:44.567Z,4.60
2019-03-11T17:51:48.232Z,9.48
2019-03-11T17:55:51.910Z,16.10
2019-03-11T17:59:55.515Z,23.12
2019-03-11T18:03:59.219Z,8.83
2019-03-11T18:08:03.046Z,6.78
2019-03-11T18:12:06.655Z,8.97
2019-03-11T18:16:10.265Z,8.05
2019-03-11T18:20:16.044Z,21.45
2019-03-11T18:24:19.993Z,15.50
2019-03-11T18:28:24.162Z,7.20
2019-03-11T18:32:27.800Z,9.58
2019-03-11T18:36:31.593Z,11.08
2019-03-11T18:40:35.227Z,8.08
2019-03-11T18:44:38.948Z,11.68
2019-03-11T18:48:42.625Z,10.93
2019-03-11T18:52:46.478Z,17.67
2019-03-11T18:56:50.114Z,14.10
2019-03-11T19:00:54.026Z,14.35
2019-03-11T19:04:57.725Z,16.25
2019-03-11T19:09:01.384Z,16.90
2019-03-11T19:13:05.496Z,19.60
2019-03-11T19:17:09.492Z,18.77
2019-03-11T19:21:13.235Z,22.93
2019-03-11T19:25:17.433Z,26.30
2019-03-11T19:29:21.081Z,25.33
2019-03-11T19:33:24.776Z,24.27
2019-03-11T19:37:28.506Z,24.05
2019-03-11T19:41:32.151Z,24.33
2019-03-11T19:45:35.832Z,34.63
2019-03-11T19:49:39.708Z,29.83
2019-03-11T19:53:43.553Z,41.70
2019-03-11T19:57:47.359Z,34.57
2019-03-11T20:01:50.993Z,56.00
2019-03-11T20:05:54.807Z,34.70
2019-03-11T20:09:58.437Z,25.47
2019-03-11T20:14:02.119Z,35.47
2019-03-11T20:18:05.850Z,27.63
2019-03-11T20:22:09.653Z,33.87
2019-03-11T20:26:14.621Z,25.33
2019-03-11T20:30:23.234Z,28.60
2019-03-11T20:34:27.215Z,22.33
2019-03-11T20:38:31.342Z,21.60
2019-03-11T20:42:35.394Z,22.50
2019-03-11T20:46:39.290Z,23.97
2019-03-11T20:50:43.178Z,26.63
2019-03-11T20:54:47.127Z,24.40
2019-03-11T20:58:52.707Z,29.23
2019-03-11T21:02:59.822Z,30.73
2019-03-11T21:07:02.464Z,23.73
2019-03-11T21:11:06.302Z,28.32
2019-03-11T21:15:12.851Z,27.50
2019-03-11T21:19:16.689Z,38.40
2019-03-11T21:23:20.404Z,31.77
2019-03-11T21:27:25.552Z,26.33
2019-03-11T21:31:29.171Z,28.77
2019-03-11T21:35:33.082Z,32.23
2019-03-11T21:39:37.086Z,33.13
2019-03-11T21:43:40.797Z,31.76
2019-03-11T21:47:45.114Z,35.13
2019-03-11T21:51:48.762Z,37.77
2019-03-11T21:55:52.529Z,27.20
2019-03-11T21:59:56.539Z,30.20
2019-03-11T22:04:01.526Z,27.87
2019-03-11T22:08:05.246Z,32.13
2019-03-11T22:12:10.596Z,26.77
2019-03-11T22:16:14.834Z,24.47
2019-03-11T22:20:19.171Z,25.13
2019-03-11T22:24:23.695Z,21.77
2019-03-11T22:28:27.290Z,21.60
2019-03-11T22:32:31.036Z,25.90
2019-03-11T22:36:34.621Z,20.20
2019-03-11T22:40:38.694Z,24.23
2019-03-11T22:44:42.409Z,26.77
2019-03-11T22:48:46.575Z,23.17
2019-03-11T22:52:50.722Z,25.50
2019-03-11T22:56:54.648Z,31.60
2019-03-11T23:01:00.953Z,26.80
2019-03-11T23:05:05.957Z,26.47
2019-03-11T23:09:10.688Z,22.77
2019-03-11T23:13:14.685Z,35.27
2019-03-11T23:17:18.334Z,26.67
2019-03-11T23:21:23.394Z,26.53
2019-03-11T23:25:27.002Z,26.50
2019-03-11T23:29:30.789Z,22.27
2019-03-11T23:33:34.649Z,27.67
2019-03-11T23:37:38.243Z,24.07
2019-03-11T23:41:42.062Z,24.63
2019-03-11T23:45:45.909Z,25.20
2019-03-11T23:49:50.198Z,19.83
2019-03-11T23:53:53.720Z,20.97
2019-03-11T23:57:57.340Z,14.90
